Time;durP1;ratioP1;P1;durP2;ratioP2;P2;SDS_P1;SDS_P2;PMS_P1;PMS_P2;Temp;Humidity;BMP_temperature;BMP_pressure;BME280_temperature;BME280_humidity;BME280_pressure;Samples;Min_cycle;Max_cycle;Signal;HPM_P1;HPM_P2
2023/06/12 00:05:44;;;;;;;5.73;5.20;;;20.20;57.00;;;;;;20916022;28;20231;-67
2023/06/12 00:15:46;;;;;;;7.17;5.40;;;20.00;56.80;;;;;;20915541;28;20262;-68
2023/06/12 00:25:48;;;;;;;9.27;6.73;;;19.70;57.20;;;;;;20913467;28;20278;-67
2023/06/12 00:35:51;;;;;;;7.63;5.63;;;19.60;57.40;;;;;;20912215;28;20296;-68
2023/06/12 00:45:52;;;;;;;9.53;5.57;;;19.50;58.00;;;;;;20912145;28;20637;-75
2023/06/12 00:55:55;;;;;;;6.60;5.57;;;19.30;58.20;;;;;;20912076;28;20222;-68
2023/06/12 01:05:57;;;;;;;7.27;5.93;;;19.20;58.60;;;;;;20911494;28;20243;-70
2023/06/12 01:15:59;;;;;;;6.87;5.83;;;19.00;58.80;;;;;;20910899;28;20247;-76
2023/06/12 01:26:18;;;;;;;6.13;5.53;;;18.80;59.30;;;;;;20910691;28;20233;-65
2023/06/12 01:36:23;;;;;;;6.43;5.80;;;18.70;59.60;;;;;;20910204;28;20235;-68
2023/06/12 01:46:25;;;;;;;7.40;6.00;;;18.50;60.00;;;;;;20910123;28;20237;-77
2023/06/12 01:56:27;;;;;;;10.23;6.40;;;18.40;60.40;;;;;;20924823;28;20223;-77
2023/06/12 02:06:28;;;;;;;7.23;6.03;;;18.30;61.20;;;;;;20923757;28;20275;-74
2023/06/12 02:16:30;;;;;;;11.80;6.67;;;18.30;62.00;;;;;;20923043;28;20236;-77
2023/06/12 02:26:32;;;;;;;7.60;6.10;;;18.30;62.30;;;;;;20922811;28;20231;-77
2023/06/12 02:36:33;;;;;;;10.03;6.87;;;18.20;62.80;;;;;;20921670;28;20299;-78
2023/06/12 02:46:52;;;;;;;8.27;6.77;;;18.00;63.20;;;;;;20920777;28;20235;-65
2023/06/12 02:56:54;;;;;;;9.67;6.53;;;17.90;63.90;;;;;;20920802;28;20739;-66
2023/06/12 03:06:56;;;;;;;8.13;6.40;;;17.80;64.50;;;;;;20918896;28;20320;-66
2023/06/12 03:16:58;;;;;;;9.70;6.43;;;17.80;65.00;;;;;;20918241;28;20238;-65
2023/06/12 03:26:59;;;;;;;7.53;6.10;;;17.80;65.30;;;;;;20917566;28;20330;-66
2023/06/12 03:37:01;;;;;;;13.07;7.10;;;17.60;65.50;;;;;;20916654;28;20235;-67
2023/06/12 03:47:03;;;;;;;9.20;7.53;;;17.50;66.10;;;;;;20924454;28;20231;-66
2023/06/12 03:57:06;;;;;;;9.07;6.70;;;17.60;66.40;;;;;;20937792;28;20212;-73
2023/06/12 04:07:08;;;;;;;8.23;6.87;;;17.60;66.80;;;;;;20940822;28;20321;-74
2023/06/12 04:17:10;;;;;;;10.07;7.30;;;17.70;67.00;;;;;;20922470;28;20235;-69
2023/06/12 04:27:13;;;;;;;9.17;7.07;;;17.80;67.10;;;;;;20913281;28;20719;-66
2023/06/12 04:37:18;;;;;;;18.23;7.93;;;18.00;67.10;;;;;;20912552;28;20633;-69
2023/06/12 04:47:20;;;;;;;11.87;7.80;;;18.20;67.20;;;;;;20912162;28;20237;-67
2023/06/12 04:57:22;;;;;;;16.50;7.80;;;18.30;67.30;;;;;;20912157;28;20211;-69
2023/06/12 05:07:24;;;;;;;14.63;8.87;;;18.60;67.10;;;;;;20911043;28;20649;-68
2023/06/12 05:17:27;;;;;;;10.27;8.83;;;18.80;67.10;;;;;;20910555;28;20235;-68
2023/06/12 05:27:29;;;;;;;12.13;8.03;;;19.10;67.00;;;;;;20920979;28;20264;-69
2023/06/12 05:37:31;;;;;;;11.37;7.23;;;19.40;66.50;;;;;;20928217;28;20215;-73
2023/06/12 05:47:35;;;;;;;17.67;6.87;;;19.90;65.70;;;;;;20927014;28;20349;-73
2023/06/12 05:57:38;;;;;;;17.23;6.67;;;20.30;64.50;;;;;;20924671;28;20218;-77
2023/06/12 06:07:40;;;;;;;8.80;6.70;;;20.70;63.20;;;;;;20922808;28;20275;-80
2023/06/12 06:17:42;;;;;;;9.73;7.27;;;21.10;62.00;;;;;;20922122;28;20254;-79
2023/06/12 06:27:44;;;;;;;9.30;6.13;;;21.40;61.00;;;;;;20922207;28;20242;-81
2023/06/12 06:37:46;;;;;;;12.57;6.47;;;21.70;60.10;;;;;;20921076;28;20208;-67
2023/06/12 06:47:47;;;;;;;9.53;6.60;;;21.90;59.20;;;;;;20920586;28;20234;-80
2023/06/12 06:57:50;;;;;;;7.73;6.60;;;22.20;58.70;;;;;;20919962;28;20211;-68
2023/06/12 07:07:54;;;;;;;10.17;6.60;;;22.40;58.30;;;;;;20919359;28;20270;-71
2023/06/12 07:18:03;;;;;;;12.23;6.67;;;22.70;57.90;;;;;;20917665;28;20236;-69
2023/06/12 07:28:05;;;;;;;7.00;5.90;;;23.00;57.50;;;;;;20917212;28;20246;-70
2023/06/12 07:38:07;;;;;;;9.83;8.77;;;23.20;56.70;;;;;;20916752;28;20732;-73
2023/06/12 07:48:09;;;;;;;14.43;6.00;;;23.30;56.10;;;;;;20897346;28;20263;-74
2023/06/12 07:58:10;;;;;;;9.60;6.43;;;23.60;55.80;;;;;;20913345;28;20261;-79
2023/06/12 08:08:12;;;;;;;6.97;6.23;;;23.70;55.00;;;;;;20914270;28;20235;-73
2023/06/12 08:18:14;;;;;;;10.87;7.60;;;23.90;54.30;;;;;;20915019;28;20296;-74
2023/06/12 08:28:16;;;;;;;6.77;5.53;;;24.10;53.50;;;;;;20918606;28;20563;-73
2023/06/12 08:38:18;;;;;;;10.67;5.90;;;24.30;53.20;;;;;;20913690;28;20208;-73
2023/06/12 08:48:20;;;;;;;7.60;5.47;;;24.50;52.20;;;;;;20911327;28;20235;-69
2023/06/12 08:58:22;;;;;;;6.97;5.13;;;24.70;51.20;;;;;;20915081;28;20254;-67
2023/06/12 09:08:24;;;;;;;7.13;5.00;;;24.90;49.70;;;;;;20928041;28;20252;-76
2023/06/12 09:18:26;;;;;;;6.73;5.10;;;25.10;48.50;;;;;;20926935;28;20227;-68
2023/06/12 09:28:31;;;;;;;12.33;5.10;;;25.10;47.50;;;;;;20926150;28;20246;-67
2023/06/12 09:38:36;;;;;;;5.30;4.50;;;25.40;46.70;;;;;;20927082;28;20224;-70
2023/06/12 09:48:38;;;;;;;5.63;4.57;;;25.50;44.70;;;;;;20924629;28;20251;-79
2023/06/12 09:58:47;;;;;;;8.70;4.90;;;25.60;43.60;;;;;;20943623;28;20222;-82
2023/06/12 10:08:53;;;;;;;10.97;5.53;;;25.70;42.90;;;;;;20923353;28;20756;-81
2023/06/12 10:18:56;;;;;;;9.20;6.10;;;25.80;43.40;;;;;;20922664;28;20702;-68
2023/06/12 10:28:58;;;;;;;12.13;5.10;;;25.90;44.30;;;;;;20904388;28;20232;-80
2023/06/12 10:39:10;;;;;;;6.40;5.30;;;26.00;43.90;;;;;;20921551;28;20235;-72
2023/06/12 10:49:13;;;;;;;7.47;5.43;;;26.10;44.20;;;;;;20919642;28;20241;-74
2023/06/12 10:59:15;;;;;;;10.17;5.63;;;26.30;43.60;;;;;;20918680;28;20512;-67
2023/06/12 11:09:17;;;;;;;8.50;5.40;;;26.50;44.30;;;;;;20918069;28;20604;-68
2023/06/12 11:19:24;;;;;;;14.13;4.77;;;26.80;43.70;;;;;;20918006;28;20318;-72
2023/06/12 11:29:29;;;;;;;7.03;5.37;;;26.80;43.80;;;;;;20917103;28;20327;-68
2023/06/12 11:39:31;;;;;;;9.87;7.80;;;26.60;43.90;;;;;;20916865;28;20586;-71
2023/06/12 11:49:36;;;;;;;7.80;5.00;;;26.60;43.40;;;;;;20915425;28;20254;-70
2023/06/12 11:59:40;;;;;;;7.03;5.03;;;26.70;42.90;;;;;;20947195;28;20231;-69
2023/06/12 12:09:42;;;;;;;7.80;4.78;;;27.00;42.70;;;;;;20945018;28;20323;-66
2023/06/12 12:19:44;;;;;;;6.20;5.30;;;27.60;42.00;;;;;;20930550;28;20294;-69
2023/06/12 12:29:46;;;;;;;5.13;4.50;;;27.50;41.80;;;;;;20957517;28;20236;-78
2023/06/12 12:40:05;;;;;;;7.03;4.40;;;27.40;41.00;;;;;;20911370;28;20204;-79
2023/06/12 12:50:08;;;;;;;5.22;4.40;;;27.70;40.30;;;;;;20911889;28;20239;-79
2023/06/12 13:00:21;;;;;;;5.87;4.47;;;27.80;38.80;;;;;;20911178;28;20208;-76
2023/06/12 13:10:23;;;;;;;9.97;3.90;;;27.80;37.70;;;;;;20990540;28;20239;-75
2023/06/12 13:20:25;;;;;;;8.05;4.03;;;27.90;37.20;;;;;;20992210;28;20300;-70
2023/06/12 13:30:27;;;;;;;7.93;4.15;;;28.00;37.20;;;;;;20992328;28;20248;-74
2023/06/12 13:40:30;;;;;;;11.27;4.00;;;28.30;36.40;;;;;;20993385;28;20219;-75
2023/06/12 13:50:32;;;;;;;5.20;4.53;;;28.50;36.20;;;;;;20987618;28;20235;-72
2023/06/12 14:00:34;;;;;;;5.45;4.30;;;28.60;35.10;;;;;;21008501;28;20214;-69
2023/06/12 14:10:38;;;;;;;7.82;3.88;;;28.70;35.00;;;;;;21008535;28;20330;-76
2023/06/12 14:20:40;;;;;;;27.15;4.50;;;29.00;33.70;;;;;;21006858;28;20242;-78
2023/06/12 14:30:41;;;;;;;4.15;3.60;;;30.00;32.80;;;;;;21007478;28;20251;-75
2023/06/12 14:40:43;;;;;;;11.85;4.07;;;32.50;30.60;;;;;;21008013;28;20199;-75
2023/06/12 14:50:45;;;;;;;4.68;3.72;;;32.40;30.50;;;;;;21005987;28;20258;-79
2023/06/12 15:00:47;;;;;;;5.22;4.10;;;31.60;31.40;;;;;;21001273;28;20207;-70
2023/06/12 15:10:51;;;;;;;6.78;4.20;;;32.20;30.60;;;;;;21001421;28;20322;-71
2023/06/12 15:20:52;;;;;;;7.43;3.85;;;32.40;30.60;;;;;;20983083;28;20242;-70
2023/06/12 15:30:54;;;;;;;5.38;3.90;;;33.30;30.20;;;;;;20998389;28;20235;-72
2023/06/12 15:40:56;;;;;;;8.55;4.28;;;32.60;30.20;;;;;;20998999;28;20200;-69
2023/06/12 15:51:00;;;;;;;7.82;4.05;;;33.20;30.00;;;;;;20998380;28;20706;-70
2023/06/12 16:01:02;;;;;;;5.22;3.63;;;34.30;28.60;;;;;;20996289;28;20708;-71
2023/06/12 16:11:04;;;;;;;5.75;3.75;;;34.90;28.40;;;;;;20996312;28;20238;-71
2023/06/12 16:21:05;;;;;;;4.75;3.45;;;38.30;26.80;;;;;;20996193;28;20741;-68
2023/06/12 16:31:07;;;;;;;4.13;3.67;;;42.70;24.20;;;;;;20995280;28;20234;-71
2023/06/12 16:41:09;;;;;;;4.15;3.63;;;37.80;25.40;;;;;;20996412;28;20216;-74
2023/06/12 16:51:13;;;;;;;4.18;3.60;;;35.30;26.70;;;;;;21006131;28;20322;-73
2023/06/12 17:01:15;;;;;;;7.95;3.30;;;35.00;27.10;;;;;;20994309;28;20210;-70
2023/06/12 17:11:18;;;;;;;6.80;3.60;;;35.50;26.80;;;;;;20991935;28;20226;-74
2023/06/12 17:21:19;;;;;;;7.97;3.60;;;38.80;24.80;;;;;;20982538;28;20238;-71
2023/06/12 17:31:21;;;;;;;8.48;3.80;;;40.20;23.80;;;;;;21009404;28;20227;-70
2023/06/12 17:41:23;;;;;;;5.10;3.90;;;42.50;22.70;;;;;;21008287;28;20207;-68
2023/06/12 17:51:25;;;;;;;5.20;3.63;;;44.00;21.80;;;;;;21008353;28;20239;-69
2023/06/12 18:01:27;;;;;;;7.95;4.00;;;44.20;21.30;;;;;;21005614;28;20254;-71
2023/06/12 18:11:29;;;;;;;6.07;4.45;;;41.60;21.70;;;;;;21004153;28;20234;-70
2023/06/12 18:21:31;;;;;;;5.13;4.43;;;34.50;25.00;;;;;;21003888;28;20243;-73
2023/06/12 18:31:32;;;;;;;7.38;4.93;;;31.60;27.00;;;;;;21003438;28;20227;-70
2023/06/12 18:41:34;;;;;;;7.25;4.47;;;29.80;28.20;;;;;;21004649;28;20647;-68
2023/06/12 18:51:36;;;;;;;5.20;4.65;;;28.50;29.10;;;;;;21002644;28;20241;-74
2023/06/12 19:01:38;;;;;;;5.10;4.60;;;27.70;30.00;;;;;;21002783;28;20302;-76
2023/06/12 19:11:42;;;;;;;5.87;4.40;;;27.10;31.00;;;;;;20961568;28;20239;-64
2023/06/12 19:21:44;;;;;;;11.23;4.40;;;26.50;32.10;;;;;;20992507;28;20231;-71
2023/06/12 19:31:45;;;;;;;6.20;5.00;;;26.10;34.20;;;;;;20983513;28;20234;-63
2023/06/12 19:41:47;;;;;;;10.53;4.60;;;25.70;35.30;;;;;;20935585;28;20215;-64
2023/06/12 19:51:49;;;;;;;8.57;4.73;;;25.40;36.20;;;;;;20963678;28;20353;-63
2023/06/12 20:01:51;;;;;;;8.70;4.90;;;25.10;36.80;;;;;;20954836;28;20243;-63
2023/06/12 20:11:53;;;;;;;9.97;4.90;;;24.80;37.50;;;;;;20952170;28;20368;-66
2023/06/12 20:21:57;;;;;;;5.17;4.60;;;24.60;38.30;;;;;;20949988;28;20270;-68
2023/06/12 20:32:00;;;;;;;7.70;4.80;;;24.40;38.60;;;;;;20958207;28;20512;-62
2023/06/12 20:42:03;;;;;;;6.13;4.60;;;24.20;39.40;;;;;;20946138;28;20204;-63
2023/06/12 20:52:06;;;;;;;6.73;4.60;;;24.00;40.00;;;;;;20953909;28;20235;-63
2023/06/12 21:02:08;;;;;;;5.87;4.57;;;23.80;40.70;;;;;;20947318;28;20207;-63
2023/06/12 21:12:10;;;;;;;9.70;4.97;;;23.70;41.40;;;;;;20951179;28;20245;-63
2023/06/12 21:22:11;;;;;;;5.80;4.57;;;23.50;41.50;;;;;;20946110;28;20235;-63
2023/06/12 21:32:13;;;;;;;7.63;4.80;;;23.30;42.10;;;;;;20956463;28;20241;-63
2023/06/12 21:42:15;;;;;;;7.33;4.67;;;23.20;42.80;;;;;;20946677;28;20442;-64
2023/06/12 21:52:17;;;;;;;8.27;5.10;;;23.50;43.50;;;;;;20958604;28;20235;-64
2023/06/12 22:02:18;;;;;;;8.67;4.40;;;22.90;43.60;;;;;;20947648;28;20203;-75
2023/06/12 22:12:20;;;;;;;6.17;4.70;;;22.60;42.90;;;;;;20969436;28;20239;-75
2023/06/12 22:22:25;;;;;;;6.20;4.40;;;22.50;42.50;;;;;;20969287;28;20244;-76
2023/06/12 22:32:27;;;;;;;7.90;4.50;;;22.20;42.50;;;;;;20964753;28;20326;-76
2023/06/12 22:42:29;;;;;;;6.77;4.70;;;22.00;42.70;;;;;;20955018;28;20245;-76
2023/06/12 22:52:33;;;;;;;7.73;4.90;;;21.80;43.00;;;;;;20957723;28;20667;-77
2023/06/12 23:02:34;;;;;;;7.57;4.40;;;21.70;43.70;;;;;;20955745;28;20635;-71
2023/06/12 23:12:36;;;;;;;5.93;4.53;;;21.60;44.20;;;;;;20961478;28;20212;-63
2023/06/12 23:22:38;;;;;;;7.43;4.70;;;21.40;44.50;;;;;;20949296;28;20262;-64
2023/06/12 23:32:40;;;;;;;6.50;4.57;;;21.10;44.90;;;;;;20932592;28;20223;-63
2023/06/12 23:42:42;;;;;;;8.33;5.07;;;21.00;44.90;;;;;;20956163;28;20617;-64
2023/06/12 23:52:43;;;;;;;6.57;4.90;;;21.00;45.70;;;;;;20950047;28;20303;-67
